createdAt,value
2023-01-13T00:01:11.023Z,7.93
2023-01-13T00:03:38.161Z,8.50
2023-01-13T00:06:06.373Z,9.95
2023-01-13T00:08:33.439Z,7.93
2023-01-13T00:11:00.139Z,6.53
2023-01-13T00:13:26.802Z,7.82
2023-01-13T00:16:01.452Z,13.50
2023-01-13T00:18:28.639Z,9.13
2023-01-13T00:21:06.763Z,12.20
2023-01-13T00:23:35.039Z,10.07
2023-01-13T00:26:05.568Z,9.25
2023-01-13T00:28:32.534Z,7.80
2023-01-13T00:31:10.913Z,6.10
2023-01-13T00:33:38.015Z,10.15
2023-01-13T00:36:07.234Z,7.72
2023-01-13T00:38:35.691Z,11.82
2023-01-13T00:41:05.397Z,9.98
2023-01-13T00:43:34.103Z,7.72
2023-01-13T00:46:01.441Z,6.18
2023-01-13T00:48:30.636Z,7.68
2023-01-13T00:51:06.056Z,10.73
2023-01-13T00:53:38.618Z,6.95
2023-01-13T00:56:14.521Z,10.43
2023-01-13T00:58:41.723Z,8.70
2023-01-13T01:01:12.555Z,5.43
2023-01-13T01:03:39.450Z,11.40
2023-01-13T01:06:13.900Z,13.20
2023-01-13T01:08:41.261Z,9.00
2023-01-13T01:11:10.687Z,9.55
2023-01-13T01:13:38.038Z,4.75
2023-01-13T01:16:09.843Z,7.80
2023-01-13T01:18:39.716Z,11.80
2023-01-13T01:21:07.829Z,22.85
2023-01-13T01:23:36.261Z,11.75
2023-01-13T01:26:05.108Z,11.10
2023-01-13T01:28:32.315Z,18.27
2023-01-13T01:30:59.848Z,11.15
2023-01-13T01:33:26.868Z,12.38
2023-01-13T01:35:54.689Z,16.90
2023-01-13T01:38:23.372Z,20.30
2023-01-13T01:40:50.125Z,15.70
2023-01-13T01:43:39.680Z,17.75
2023-01-13T01:46:06.365Z,12.98
2023-01-13T01:48:38.399Z,21.42
2023-01-13T01:51:08.913Z,19.75
2023-01-13T01:53:35.878Z,12.43
2023-01-13T01:56:03.493Z,11.25
2023-01-13T01:58:35.555Z,13.90
2023-01-13T02:01:02.433Z,16.98
2023-01-13T02:03:30.320Z,22.10
2023-01-13T02:05:56.952Z,13.50
2023-01-13T02:08:24.229Z,11.43
2023-01-13T02:10:54.122Z,11.15
2023-01-13T02:13:22.751Z,14.80
2023-01-13T02:16:15.461Z,19.05
2023-01-13T02:19:23.487Z,17.17
2023-01-13T02:22:22.086Z,18.80
2023-01-13T02:25:09.951Z,21.17
2023-01-13T02:27:51.728Z,22.83
2023-01-13T02:30:59.662Z,17.05
2023-01-13T02:33:34.436Z,18.65
2023-01-13T02:36:25.040Z,19.90
2023-01-13T02:38:58.396Z,18.50
2023-01-13T02:41:51.101Z,20.77
2023-01-13T02:44:25.122Z,14.10
2023-01-13T02:47:06.605Z,19.67
2023-01-13T02:49:42.618Z,17.38
2023-01-13T02:52:14.055Z,28.90
2023-01-13T02:54:45.569Z,19.95
2023-01-13T02:57:15.417Z,23.67
2023-01-13T02:59:42.925Z,15.57
2023-01-13T03:02:15.017Z,13.35
2023-01-13T03:04:50.701Z,16.08
2023-01-13T03:07:29.627Z,17.50
2023-01-13T03:10:27.333Z,17.50
2023-01-13T03:13:29.561Z,9.45
2023-01-13T03:16:10.467Z,15.35
2023-01-13T03:19:02.863Z,17.50
2023-01-13T03:21:46.060Z,18.20
2023-01-13T03:24:37.020Z,19.42
2023-01-13T03:27:31.438Z,14.70
2023-01-13T03:30:14.184Z,22.48
2023-01-13T03:32:44.345Z,28.13
2023-01-13T03:35:22.097Z,20.15
2023-01-13T03:37:59.779Z,18.92
2023-01-13T03:40:33.232Z,19.80
2023-01-13T03:43:26.906Z,18.13
2023-01-13T03:46:08.605Z,20.85
2023-01-13T03:48:41.005Z,20.23
2023-01-13T03:51:13.273Z,13.65
2023-01-13T03:53:48.241Z,20.58
2023-01-13T03:56:54.872Z,22.88
2023-01-13T03:59:25.304Z,14.63
2023-01-13T04:02:01.751Z,12.82
2023-01-13T04:04:43.871Z,20.35
2023-01-13T04:07:20.730Z,28.92
2023-01-13T04:12:28.646Z,18.60
2023-01-13T04:14:56.423Z,17.33
2023-01-13T04:17:24.678Z,12.00
2023-01-13T04:19:51.232Z,14.05
2023-01-13T04:22:17.899Z,12.63
2023-01-13T04:24:44.469Z,18.83
2023-01-13T04:27:11.093Z,17.98
2023-01-13T04:29:37.889Z,23.00
2023-01-13T04:32:04.620Z,20.65
2023-01-13T04:34:31.425Z,17.05
2023-01-13T04:36:58.124Z,13.70
2023-01-13T04:39:24.750Z,15.13
2023-01-13T04:42:01.398Z,20.38
2023-01-13T04:44:28.808Z,19.38
2023-01-13T04:46:55.581Z,15.98
2023-01-13T04:49:22.225Z,20.63
2023-01-13T04:51:48.893Z,12.38
2023-01-13T04:54:16.313Z,15.82
2023-01-13T04:56:43.380Z,15.90
2023-01-13T04:59:13.907Z,25.73
2023-01-13T05:01:40.982Z,17.42
2023-01-13T05:04:08.475Z,19.33
2023-01-13T05:06:35.119Z,21.20
2023-01-13T05:09:03.088Z,13.75
2023-01-13T05:11:48.042Z,17.30
2023-01-13T05:14:33.267Z,22.40
2023-01-13T05:17:03.692Z,20.73
2023-01-13T05:19:39.209Z,20.30
2023-01-13T05:22:28.792Z,12.02
2023-01-13T05:25:14.046Z,13.30
2023-01-13T05:27:40.574Z,13.32
2023-01-13T05:30:07.946Z,14.43
2023-01-13T05:32:34.653Z,11.13
2023-01-13T05:35:01.292Z,21.60
2023-01-13T05:37:27.983Z,14.27
2023-01-13T05:40:13.390Z,15.35
2023-01-13T05:42:58.762Z,14.48
2023-01-13T05:45:25.325Z,9.68
2023-01-13T05:47:51.963Z,15.35
2023-01-13T05:50:18.904Z,11.95
2023-01-13T05:52:45.711Z,11.75
2023-01-13T05:55:12.603Z,7.95
2023-01-13T05:57:39.185Z,10.65
2023-01-13T06:00:06.347Z,6.68
2023-01-13T06:02:33.148Z,10.98
2023-01-13T06:04:59.734Z,8.60
2023-01-13T06:07:26.368Z,7.97
2023-01-13T06:09:52.892Z,7.32
2023-01-13T06:12:19.645Z,11.57
2023-01-13T06:14:46.177Z,6.57
2023-01-13T06:17:14.800Z,7.38
2023-01-13T06:19:41.908Z,4.93
2023-01-13T06:22:13.668Z,8.70
2023-01-13T06:24:40.355Z,7.05
2023-01-13T06:27:08.857Z,3.67
2023-01-13T06:29:35.970Z,11.82
2023-01-13T06:32:08.442Z,8.40
2023-01-13T06:34:35.788Z,6.90
2023-01-13T06:37:03.508Z,7.03
2023-01-13T06:39:31.642Z,9.63
2023-01-13T06:42:17.730Z,5.05
2023-01-13T06:44:45.328Z,5.43
2023-01-13T06:47:12.141Z,6.63
2023-01-13T06:49:38.778Z,8.82
2023-01-13T06:52:05.795Z,6.82
2023-01-13T06:54:32.435Z,7.65
2023-01-13T06:56:58.981Z,4.57
2023-01-13T06:59:25.889Z,9.48
2023-01-13T07:01:52.676Z,9.52
2023-01-13T07:04:19.542Z,16.85
2023-01-13T07:06:46.067Z,5.75
2023-01-13T07:09:12.822Z,7.93
2023-01-13T07:11:39.436Z,11.55
2023-01-13T07:14:24.574Z,9.68
2023-01-13T07:16:52.378Z,12.02
2023-01-13T07:19:23.715Z,7.00
2023-01-13T07:21:52.379Z,16.27
2023-01-13T07:24:19.898Z,9.82
2023-01-13T07:26:46.512Z,16.02
2023-01-13T07:29:13.266Z,11.88
2023-01-13T07:31:40.125Z,9.38
2023-01-13T07:34:07.405Z,9.32
2023-01-13T07:36:34.256Z,8.93
2023-01-13T07:39:01.279Z,9.00
2023-01-13T07:41:46.453Z,9.68
2023-01-13T07:44:13.134Z,7.95
2023-01-13T07:46:40.384Z,10.20
2023-01-13T07:49:08.320Z,9.57
2023-01-13T07:51:39.140Z,13.00
2023-01-13T07:54:06.471Z,19.25
2023-01-13T07:56:33.061Z,10.10
2023-01-13T07:59:00.963Z,8.15
2023-01-13T08:01:28.162Z,19.02
2023-01-13T08:03:57.696Z,17.60
2023-01-13T08:06:25.180Z,11.63
2023-01-13T08:08:51.908Z,15.75
2023-01-13T08:11:18.933Z,14.07
2023-01-13T08:13:45.643Z,9.18
2023-01-13T08:16:15.019Z,14.57
2023-01-13T08:18:42.373Z,14.88
2023-01-13T08:21:14.236Z,10.50
2023-01-13T08:23:44.900Z,14.80
2023-01-13T08:26:17.347Z,8.20
2023-01-13T08:28:45.025Z,11.68
2023-01-13T08:31:16.490Z,18.90
2023-01-13T08:33:43.619Z,10.55
2023-01-13T08:36:12.540Z,10.35
2023-01-13T08:38:40.473Z,11.65
2023-01-13T08:41:16.029Z,14.95
2023-01-13T08:43:42.867Z,13.75
2023-01-13T08:46:09.727Z,10.40
2023-01-13T08:48:36.355Z,18.10
2023-01-13T08:51:08.911Z,16.58
2023-01-13T08:53:35.771Z,16.10
2023-01-13T08:56:02.588Z,12.93
2023-01-13T08:58:29.508Z,19.50
2023-01-13T09:00:56.204Z,17.63
2023-01-13T09:03:23.150Z,8.07
2023-01-13T09:05:49.717Z,16.75
2023-01-13T09:08:16.459Z,11.15
2023-01-13T09:10:43.255Z,16.45
2023-01-13T09:13:13.647Z,17.27
2023-01-13T09:15:43.937Z,18.25
2023-01-13T09:18:11.644Z,13.68
2023-01-13T09:20:38.666Z,12.65
2023-01-13T09:23:08.812Z,11.05
2023-01-13T09:25:39.725Z,15.35
2023-01-13T09:28:08.220Z,15.07
2023-01-13T09:30:36.287Z,15.60
2023-01-13T09:33:22.996Z,14.52
2023-01-13T09:35:49.710Z,13.68
2023-01-13T09:38:16.456Z,10.50
2023-01-13T09:40:43.977Z,14.73
2023-01-13T09:43:42.210Z,9.45
2023-01-13T09:46:38.128Z,8.55
2023-01-13T09:49:05.288Z,12.70
2023-01-13T09:51:40.954Z,13.40
2023-01-13T09:54:26.014Z,15.20
2023-01-13T09:56:53.158Z,17.77
2023-01-13T09:59:20.185Z,18.40
2023-01-13T10:01:59.553Z,11.13
2023-01-13T10:04:26.965Z,11.02
2023-01-13T10:06:58.289Z,17.05
2023-01-13T10:09:42.711Z,11.18
2023-01-13T10:12:37.674Z,12.75
2023-01-13T10:15:04.853Z,15.05
2023-01-13T10:17:43.214Z,18.70
2023-01-13T10:20:26.697Z,11.02
2023-01-13T10:23:20.136Z,11.32
2023-01-13T10:26:08.107Z,11.50
2023-01-13T10:28:34.772Z,19.50
2023-01-13T10:31:05.290Z,16.05
2023-01-13T10:33:31.986Z,15.00
2023-01-13T10:36:21.651Z,16.08
2023-01-13T10:38:50.337Z,9.45
2023-01-13T10:41:19.656Z,12.02
2023-01-13T10:43:59.184Z,12.90
2023-01-13T10:46:27.350Z,12.82
2023-01-13T10:48:57.929Z,17.00
2023-01-13T10:51:31.701Z,15.00
2023-01-13T10:54:12.799Z,14.50
2023-01-13T10:56:45.013Z,18.52
2023-01-13T10:59:31.645Z,15.05
2023-01-13T11:02:32.514Z,14.40
2023-01-13T11:05:09.639Z,14.73
2023-01-13T11:07:40.479Z,5.30
2023-01-13T11:10:10.040Z,14.05
2023-01-13T11:12:53.586Z,11.50
2023-01-13T11:15:24.279Z,18.48
2023-01-13T11:18:23.217Z,13.07
2023-01-13T11:20:51.687Z,17.92
2023-01-13T11:23:27.518Z,12.77
2023-01-13T11:26:01.834Z,12.80
2023-01-13T11:28:40.957Z,13.43
2023-01-13T11:31:30.250Z,15.48
2023-01-13T11:34:15.314Z,19.25
2023-01-13T11:36:46.427Z,10.65
2023-01-13T11:39:53.848Z,9.45
2023-01-13T11:42:36.724Z,15.00
2023-01-13T11:45:38.591Z,13.32
2023-01-13T11:48:05.790Z,10.43
2023-01-13T11:50:40.621Z,14.15
2023-01-13T11:53:24.401Z,16.55
2023-01-13T11:55:53.937Z,11.50
2023-01-13T11:58:49.608Z,15.25
2023-01-13T12:01:28.452Z,13.70
2023-01-13T12:04:13.278Z,13.93
2023-01-13T12:06:41.405Z,11.60
2023-01-13T12:09:19.281Z,11.15
2023-01-13T12:12:20.775Z,14.02
2023-01-13T12:15:15.069Z,11.20
2023-01-13T12:18:03.034Z,12.15
2023-01-13T12:20:38.706Z,12.25
2023-01-13T12:23:12.374Z,11.32
2023-01-13T12:25:50.680Z,11.13
2023-01-13T12:28:24.141Z,10.52
2023-01-13T12:30:59.472Z,8.50
2023-01-13T12:33:53.306Z,9.75
2023-01-13T12:36:32.092Z,14.88
2023-01-13T12:39:13.802Z,17.83
2023-01-13T12:42:11.338Z,10.98
2023-01-13T12:44:38.195Z,5.18
2023-01-13T12:47:04.895Z,14.00
2023-01-13T12:49:33.866Z,10.68
2023-01-13T12:52:07.413Z,11.43
2023-01-13T12:54:54.212Z,15.25
2023-01-13T12:57:26.722Z,19.42
2023-01-13T12:59:59.322Z,7.88
2023-01-13T13:02:31.227Z,12.48
2023-01-13T13:05:01.323Z,12.40
2023-01-13T13:07:30.935Z,7.70
2023-01-13T13:10:05.224Z,15.82
2023-01-13T13:12:50.337Z,14.15
2023-01-13T13:15:25.809Z,13.75
2023-01-13T13:18:17.507Z,10.27
2023-01-13T13:20:54.490Z,8.30
2023-01-13T13:23:47.847Z,10.02
2023-01-13T13:26:32.881Z,19.67
2023-01-13T13:29:30.260Z,13.30
2023-01-13T13:32:23.959Z,12.70
2023-01-13T13:35:04.495Z,11.73
2023-01-13T13:37:59.901Z,14.63
2023-01-13T13:40:49.522Z,9.77
2023-01-13T13:43:35.574Z,9.38
2023-01-13T13:46:21.008Z,7.47
2023-01-13T13:48:54.232Z,13.82
2023-01-13T13:51:27.953Z,10.68
2023-01-13T13:53:56.689Z,13.63
2023-01-13T13:56:26.639Z,8.88
2023-01-13T13:58:54.629Z,9.88
2023-01-13T14:01:36.598Z,9.73
2023-01-13T14:04:07.460Z,11.50
2023-01-13T14:06:34.411Z,9.18
2023-01-13T14:09:03.570Z,8.85
2023-01-13T14:11:33.729Z,7.32
2023-01-13T14:14:07.260Z,6.47
2023-01-13T14:16:36.292Z,10.73
2023-01-13T14:19:03.379Z,12.45
2023-01-13T14:21:31.173Z,10.25
2023-01-13T14:23:57.805Z,8.48
2023-01-13T14:26:32.310Z,9.00
2023-01-13T14:29:02.160Z,14.68
2023-01-13T14:31:30.434Z,10.90
2023-01-13T14:34:01.507Z,6.70
2023-01-13T14:36:33.612Z,17.55
2023-01-13T14:39:03.196Z,8.02
2023-01-13T14:41:38.864Z,8.10
2023-01-13T14:44:26.984Z,12.80
2023-01-13T14:46:57.600Z,9.93
2023-01-13T14:49:36.401Z,11.60
2023-01-13T14:52:23.009Z,10.43
2023-01-13T14:54:50.888Z,13.60
2023-01-13T14:57:33.517Z,12.35
2023-01-13T15:00:25.365Z,11.68
2023-01-13T15:02:58.010Z,7.55
2023-01-13T15:05:30.159Z,9.02
2023-01-13T15:08:05.305Z,9.38
2023-01-13T15:10:33.750Z,9.35
2023-01-13T15:13:03.239Z,14.23
2023-01-13T15:15:32.882Z,10.30
2023-01-13T15:18:09.135Z,10.73
2023-01-13T15:20:35.696Z,4.55
2023-01-13T15:23:02.749Z,9.35
2023-01-13T15:25:34.040Z,10.63
2023-01-13T15:28:00.841Z,9.43
2023-01-13T15:30:28.298Z,9.02
2023-01-13T15:32:56.863Z,8.50
2023-01-13T15:35:26.424Z,5.53
2023-01-13T15:37:55.021Z,7.95
2023-01-13T15:40:29.901Z,5.70
2023-01-13T15:43:15.114Z,5.05
2023-01-13T15:46:01.270Z,8.98
2023-01-13T15:48:32.108Z,8.80
2023-01-13T15:50:59.552Z,4.97
2023-01-13T15:53:27.558Z,4.70
2023-01-13T15:55:56.747Z,5.28
2023-01-13T15:58:28.554Z,7.78
2023-01-13T16:00:55.813Z,5.13
2023-01-13T16:03:22.594Z,5.70
2023-01-13T16:05:49.331Z,5.28
2023-01-13T16:08:18.392Z,12.63
2023-01-13T16:10:45.255Z,3.17
2023-01-13T16:13:13.041Z,12.50
2023-01-13T16:15:51.215Z,6.32
2023-01-13T16:18:23.792Z,9.05
2023-01-13T16:20:55.258Z,8.27
2023-01-13T16:23:22.905Z,9.27
2023-01-13T16:25:50.502Z,9.80
2023-01-13T16:28:24.400Z,9.13
2023-01-13T16:30:51.226Z,8.88
2023-01-13T16:33:18.025Z,8.70
2023-01-13T16:36:10.970Z,6.30
2023-01-13T16:38:31.340Z,4.95
2023-01-13T16:40:58.078Z,7.30
2023-01-13T16:43:24.714Z,6.55
2023-01-13T16:45:51.396Z,6.20
2023-01-13T16:48:20.093Z,7.03
2023-01-13T16:50:47.555Z,13.30
2023-01-13T16:53:15.290Z,9.48
2023-01-13T16:55:43.043Z,11.38
2023-01-13T16:58:18.772Z,21.15
2023-01-13T17:00:49.070Z,11.50
2023-01-13T17:03:16.936Z,11.10
2023-01-13T17:05:46.881Z,7.50
2023-01-13T17:08:18.145Z,7.45
2023-01-13T17:10:48.199Z,8.45
2023-01-13T17:13:17.052Z,10.13
2023-01-13T17:15:45.197Z,6.53
2023-01-13T17:18:13.678Z,14.85
2023-01-13T17:20:40.890Z,7.63
2023-01-13T17:23:07.982Z,7.47
2023-01-13T17:25:34.680Z,7.45
2023-01-13T17:28:01.337Z,8.80
2023-01-13T17:30:28.248Z,7.05
2023-01-13T17:32:54.951Z,6.85
2023-01-13T17:35:24.967Z,12.90
2023-01-13T17:37:53.381Z,10.98
2023-01-13T17:40:20.659Z,13.70
2023-01-13T17:42:47.330Z,9.55
2023-01-13T17:45:15.635Z,10.18
2023-01-13T17:47:42.998Z,9.85
2023-01-13T17:50:10.311Z,4.18
2023-01-13T17:52:37.039Z,10.23
2023-01-13T17:55:04.060Z,7.03
2023-01-13T17:57:30.598Z,8.50
2023-01-13T17:59:59.673Z,7.43
2023-01-13T18:02:26.493Z,9.55
2023-01-13T18:04:53.250Z,9.60
2023-01-13T18:07:20.011Z,9.48
2023-01-13T18:09:46.593Z,10.23
2023-01-13T18:12:13.098Z,9.98
2023-01-13T18:14:39.730Z,9.98
2023-01-13T18:17:06.480Z,15.35
2023-01-13T18:19:51.847Z,8.65
2023-01-13T18:22:37.467Z,7.13
2023-01-13T18:25:22.886Z,11.25
2023-01-13T18:27:49.572Z,8.77
2023-01-13T18:30:16.496Z,3.70
2023-01-13T18:32:43.471Z,5.55
2023-01-13T18:35:10.586Z,7.78
2023-01-13T18:37:42.109Z,6.97
2023-01-13T18:40:12.104Z,5.70
2023-01-13T18:42:59.203Z,9.40
2023-01-13T18:45:31.086Z,7.95
2023-01-13T18:48:00.797Z,5.35
2023-01-13T18:50:28.433Z,7.00
2023-01-13T18:52:55.345Z,15.00
2023-01-13T18:55:22.289Z,14.05
2023-01-13T18:57:49.444Z,7.53
2023-01-13T19:00:19.142Z,5.90
2023-01-13T19:02:47.360Z,7.85
2023-01-13T19:05:14.532Z,5.43
2023-01-13T19:07:43.230Z,6.70
2023-01-13T19:10:10.705Z,12.27
2023-01-13T19:12:38.375Z,3.50
2023-01-13T19:15:05.420Z,5.68
2023-01-13T19:17:33.898Z,8.95
2023-01-13T19:20:00.867Z,5.22
2023-01-13T19:22:33.344Z,5.22
2023-01-13T19:25:01.387Z,4.03
2023-01-13T19:27:29.173Z,3.60
2023-01-13T19:30:00.800Z,3.42
2023-01-13T19:32:28.704Z,4.70
2023-01-13T19:34:59.246Z,5.45
2023-01-13T19:37:30.305Z,5.85
2023-01-13T19:39:58.431Z,3.80
2023-01-13T19:42:43.527Z,1.90
2023-01-13T19:45:34.998Z,2.58
2023-01-13T19:48:02.544Z,5.45
2023-01-13T19:50:29.551Z,6.38
2023-01-13T19:52:56.326Z,3.90
2023-01-13T19:55:24.301Z,1.70
2023-01-13T19:57:50.896Z,1.60
2023-01-13T20:00:20.676Z,2.22
2023-01-13T20:02:49.616Z,3.50
2023-01-13T20:05:21.135Z,1.08
2023-01-13T20:07:49.017Z,2.78
2023-01-13T20:10:17.449Z,2.70
2023-01-13T20:12:44.395Z,5.10
2023-01-13T20:15:11.439Z,5.55
2023-01-13T20:17:38.080Z,3.47
2023-01-13T20:20:05.215Z,3.33
2023-01-13T20:22:31.932Z,2.85
2023-01-13T20:24:58.584Z,1.60
2023-01-13T20:27:25.222Z,4.03
2023-01-13T20:29:51.882Z,3.42
2023-01-13T20:32:18.697Z,4.63
2023-01-13T20:34:45.359Z,5.53
2023-01-13T20:37:11.954Z,4.38
2023-01-13T20:39:41.037Z,5.78
2023-01-13T20:42:27.461Z,5.75
2023-01-13T20:44:53.983Z,5.33
2023-01-13T20:47:20.677Z,7.60
2023-01-13T20:49:47.442Z,8.20
2023-01-13T20:52:14.117Z,4.18
2023-01-13T20:54:41.855Z,8.82
2023-01-13T20:57:10.087Z,3.97
2023-01-13T20:59:38.343Z,4.32
2023-01-13T21:02:07.137Z,4.88
2023-01-13T21:04:34.306Z,6.47
2023-01-13T21:07:00.963Z,4.47
2023-01-13T21:09:27.605Z,5.88
2023-01-13T21:12:12.833Z,5.60
2023-01-13T21:14:57.921Z,2.80
2023-01-13T21:17:43.188Z,5.95
2023-01-13T21:20:11.779Z,5.43
2023-01-13T21:22:39.040Z,3.85
2023-01-13T21:25:06.213Z,7.93
2023-01-13T21:27:33.038Z,4.72
2023-01-13T21:29:59.836Z,8.73
2023-01-13T21:32:26.529Z,7.18
2023-01-13T21:34:54.152Z,6.47
2023-01-13T21:37:20.736Z,8.32
2023-01-13T21:39:47.446Z,6.03
2023-01-13T21:42:35.449Z,2.63
2023-01-13T21:45:22.053Z,7.10
2023-01-13T21:47:49.344Z,5.78
2023-01-13T21:50:27.951Z,6.47
2023-01-13T21:52:55.281Z,8.75
2023-01-13T21:55:25.356Z,6.28
2023-01-13T21:57:58.390Z,5.65
2023-01-13T22:00:31.589Z,6.68
2023-01-13T22:03:00.985Z,8.07
2023-01-13T22:05:27.804Z,3.17
2023-01-13T22:07:54.370Z,6.15
2023-01-13T22:10:23.793Z,7.20
2023-01-13T22:12:55.443Z,10.25
2023-01-13T22:15:26.030Z,4.93
2023-01-13T22:17:54.588Z,4.63
2023-01-13T22:20:22.353Z,5.22
2023-01-13T22:22:49.748Z,2.83
2023-01-13T22:25:17.524Z,4.90
2023-01-13T22:27:45.069Z,3.53
2023-01-13T22:30:15.878Z,2.47
2023-01-13T22:32:42.651Z,5.57
2023-01-13T22:35:11.173Z,4.03
2023-01-13T22:37:38.668Z,2.88
2023-01-13T22:40:07.527Z,2.88
2023-01-13T22:42:39.657Z,8.00
2023-01-13T22:45:11.464Z,2.78
2023-01-13T22:47:38.773Z,2.35
2023-01-13T22:50:07.008Z,4.10
2023-01-13T22:52:34.770Z,7.82
2023-01-13T22:55:01.571Z,7.90
2023-01-13T22:57:46.753Z,4.22
2023-01-13T23:00:15.148Z,5.25
2023-01-13T23:02:42.004Z,7.07
2023-01-13T23:05:09.054Z,5.63
2023-01-13T23:07:36.223Z,7.20
2023-01-13T23:10:04.407Z,3.22
2023-01-13T23:12:31.258Z,3.80
2023-01-13T23:14:57.914Z,5.15
2023-01-13T23:17:24.458Z,7.07
2023-01-13T23:19:51.132Z,8.50
2023-01-13T23:22:17.737Z,5.07
2023-01-13T23:24:46.150Z,9.35
2023-01-13T23:27:12.879Z,9.18
2023-01-13T23:29:39.690Z,9.30
2023-01-13T23:32:06.243Z,6.25
2023-01-13T23:34:32.963Z,3.83
2023-01-13T23:36:59.570Z,5.35
2023-01-13T23:39:26.372Z,4.57
2023-01-13T23:41:52.982Z,5.55
2023-01-13T23:44:19.670Z,5.38
2023-01-13T23:46:46.366Z,9.15
2023-01-13T23:49:13.073Z,7.18
2023-01-13T23:51:39.910Z,5.05
2023-01-13T23:54:06.490Z,8.05
2023-01-13T23:56:34.042Z,6.95
2023-01-13T23:59:00.645Z,9.25
